createdAt,value
2024-01-04T00:01:17.157Z,124.84563758389261
2024-01-04T00:04:37.052Z,118.67785234899328
2024-01-04T00:10:14.771Z,114.53020134228188
2024-01-04T00:15:45.719Z,102.34228187919463
2024-01-04T00:19:05.137Z,102.81879194630872
2024-01-04T00:22:24.252Z,107.00671140939598
2024-01-04T00:25:43.727Z,106.26174496644295
2024-01-04T00:29:04.047Z,90.09395973154362
2024-01-04T00:32:23.196Z,91.85234899328859
2024-01-04T00:35:42.893Z,80.46308724832215
2024-01-04T00:39:02.459Z,82.75838926174497
2024-01-04T00:42:22.034Z,79.9261744966443
2024-01-04T00:45:41.511Z,48.711409395973156
2024-01-04T00:51:23.001Z,53.785234899328856
2024-01-04T00:54:42.802Z,55.81208053691275
2024-01-04T00:58:02.346Z,49.26845637583892
2024-01-04T01:03:42.705Z,55.29530201342282
2024-01-04T01:07:02.630Z,60.288590604026844
2024-01-04T01:10:22.505Z,65.57046979865771
2024-01-04T01:13:42.494Z,56.946308724832214
2024-01-04T01:17:01.358Z,38.36241610738255
2024-01-04T01:20:21.336Z,24.348993288590606
2024-01-04T01:23:41.531Z,22.261744966442954
2024-01-04T01:27:01.244Z,23.516778523489933
2024-01-04T01:30:21.353Z,37.77852348993289
2024-01-04T01:33:41.608Z,35.1744966442953
2024-01-04T01:37:01.687Z,44.87248322147651
2024-01-04T01:40:21.061Z,42.738255033557046
2024-01-04T01:43:40.232Z,51.84563758389262
2024-01-04T01:46:59.528Z,48.59731543624161
2024-01-04T01:50:18.765Z,48.18791946308725
2024-01-04T01:53:38.599Z,44.76510067114094
2024-01-04T01:56:57.398Z,36.84563758389262
2024-01-04T02:00:17.285Z,35.946308724832214
2024-01-04T02:06:25.797Z,30.973154362416107
2024-01-04T02:09:45.245Z,24.838926174496645
2024-01-04T02:13:03.994Z,32.29530201342282
2024-01-04T02:16:23.856Z,33.711409395973156
2024-01-04T02:19:43.868Z,22.51006711409396
2024-01-04T02:23:04.442Z,18.073825503355703
2024-01-04T02:26:23.933Z,25.530201342281877
2024-01-04T02:29:44.251Z,29.040268456375838
2024-01-04T02:33:03.827Z,22.268456375838927
2024-01-04T02:36:27.856Z,19.261744966442954
2024-01-04T02:39:47.781Z,18.16778523489933
2024-01-04T02:43:07.124Z,21.006711409395972
2024-01-04T02:46:27.870Z,25.0
2024-01-04T02:49:47.975Z,27.530201342281877
2024-01-04T02:54:51.996Z,25.845637583892618
2024-01-04T02:58:10.592Z,34.369127516778526
2024-01-04T03:01:32.973Z,24.093959731543624
2024-01-04T03:04:52.246Z,25.530201342281877
2024-01-04T03:08:11.694Z,24.61744966442953
2024-01-04T03:11:30.628Z,21.221476510067113
2024-01-04T03:14:50.695Z,30.21476510067114
2024-01-04T03:18:10.494Z,24.395973154362416
2024-01-04T03:21:30.641Z,26.44295302013423
2024-01-04T03:24:50.686Z,23.87248322147651
2024-01-04T03:28:10.502Z,26.496644295302012
2024-01-04T03:34:29.312Z,20.248322147651006
2024-01-04T03:37:49.076Z,18.107382550335572
2024-01-04T03:41:07.829Z,19.57718120805369
2024-01-04T03:44:26.678Z,15.308724832214764
2024-01-04T03:47:46.743Z,22.731543624161073
2024-01-04T03:51:06.898Z,17.100671140939596
2024-01-04T03:54:26.431Z,24.120805369127517
2024-01-04T03:57:45.190Z,29.2751677852349
2024-01-04T04:01:05.015Z,31.14765100671141
2024-01-04T04:04:23.966Z,32.993288590604024
2024-01-04T04:07:44.515Z,32.20805369127517
2024-01-04T04:11:03.924Z,28.61744966442953
2024-01-04T04:14:23.542Z,26.65771812080537
2024-01-04T04:17:42.820Z,24.651006711409394
2024-01-04T04:21:02.524Z,23.664429530201343
2024-01-04T04:24:22.011Z,24.25503355704698
2024-01-04T04:27:41.338Z,17.778523489932887
2024-01-04T04:31:01.188Z,19.328859060402685
2024-01-04T04:34:20.618Z,20.288590604026847
2024-01-04T04:37:39.901Z,29.78523489932886
2024-01-04T04:40:58.955Z,30.644295302013422
2024-01-04T04:44:18.721Z,39.61744966442953
2024-01-04T04:49:25.113Z,54.5503355704698
2024-01-04T04:52:44.376Z,64.75838926174497
2024-01-04T04:56:05.319Z,52.97986577181208
2024-01-04T04:59:25.394Z,39.966442953020135
2024-01-04T05:02:45.346Z,35.32214765100671
2024-01-04T05:06:04.995Z,33.49664429530201
2024-01-04T05:09:24.492Z,50.89261744966443
2024-01-04T05:12:44.196Z,67.61073825503355
2024-01-04T05:17:11.979Z,97.53020134228188
2024-01-04T05:20:33.272Z,124.46979865771812
2024-01-04T05:23:53.066Z,95.8993288590604
2024-01-04T05:29:36.017Z,88.67785234899328
2024-01-04T05:32:55.775Z,87.46308724832215
2024-01-04T05:36:15.665Z,79.24832214765101
2024-01-04T05:41:26.564Z,66.06040268456375
2024-01-04T05:44:46.886Z,62.85906040268456
2024-01-04T05:48:06.830Z,48.375838926174495
2024-01-04T05:51:26.882Z,52.88590604026846
2024-01-04T05:55:00.951Z,64.18120805369128
2024-01-04T05:58:19.882Z,64.16107382550335
2024-01-04T06:01:40.111Z,79.63758389261746
2024-01-04T06:05:00.725Z,91.05369127516778
2024-01-04T06:08:20.411Z,112.42281879194631
2024-01-04T06:14:47.980Z,127.16778523489933
2024-01-04T06:18:08.194Z,113.10738255033557
2024-01-04T06:21:28.586Z,125.3758389261745
2024-01-04T06:24:48.362Z,160.6241610738255
2024-01-04T06:28:07.996Z,176.74496644295303
2024-01-04T06:31:27.544Z,127.16778523489933
2024-01-04T06:34:46.698Z,166.2751677852349
2024-01-04T06:38:06.220Z,137.59731543624162
2024-01-04T06:43:26.656Z,124.14765100671141
2024-01-04T06:46:46.720Z,116.14765100671141
2024-01-04T06:50:14.921Z,114.08053691275168
2024-01-04T06:53:37.518Z,156.84563758389262
2024-01-04T06:56:56.965Z,169.10738255033556
2024-01-04T07:00:16.132Z,168.8724832214765
2024-01-04T07:03:36.088Z,158.21476510067114
2024-01-04T07:06:55.533Z,124.23489932885906
2024-01-04T07:10:15.458Z,109.46308724832215
2024-01-04T07:13:35.834Z,109.93959731543625
2024-01-04T07:16:55.352Z,124.1744966442953
2024-01-04T07:20:14.789Z,174.65771812080536
2024-01-04T07:26:45.482Z,133.85906040268458
2024-01-04T07:30:05.420Z,129.71140939597316
2024-01-04T07:33:25.943Z,168.06711409395973
2024-01-04T07:36:45.535Z,181.6778523489933
2024-01-04T07:40:05.186Z,174.40268456375838
2024-01-04T07:43:25.081Z,156.9731543624161
2024-01-04T07:46:44.249Z,165.04026845637583
2024-01-04T07:50:03.885Z,153.79194630872485
2024-01-04T07:55:53.207Z,114.9261744966443
2024-01-04T07:59:12.145Z,127.48993288590604
2024-01-04T08:02:31.860Z,137.50335570469798
2024-01-04T08:05:51.554Z,101.70469798657719
2024-01-04T08:09:11.156Z,126.59731543624162
2024-01-04T08:12:30.997Z,161.20805369127515
2024-01-04T08:15:51.311Z,172.3288590604027
2024-01-04T08:19:10.294Z,130.08724832214764
2024-01-04T08:24:36.050Z,118.88590604026845
2024-01-04T08:30:38.750Z,121.60402684563758
2024-01-04T08:33:58.617Z,143.4496644295302
2024-01-04T08:37:17.644Z,113.54362416107382
2024-01-04T08:40:37.984Z,116.25503355704699
2024-01-04T08:43:57.394Z,102.03355704697987
2024-01-04T08:47:17.284Z,100.08053691275168
2024-01-04T08:53:07.707Z,115.3758389261745
2024-01-04T08:56:27.276Z,121.80536912751678
2024-01-04T08:59:47.774Z,134.35570469798657
2024-01-04T09:03:07.679Z,191.59060402684563
2024-01-04T09:06:27.144Z,258.32214765100673
2024-01-04T09:09:46.905Z,489.744966442953
2024-01-04T09:13:06.486Z,372.8993288590604
2024-01-04T09:17:50.591Z,315.5704697986577
2024-01-04T09:21:10.150Z,238.1275167785235
2024-01-04T09:24:29.951Z,184.93959731543623
2024-01-04T09:27:49.898Z,213.6711409395973
2024-01-04T09:31:09.715Z,207.41610738255034
2024-01-04T09:34:41.482Z,108.50335570469798
2024-01-04T09:38:00.730Z,84.5503355704698
2024-01-04T09:41:20.180Z,82.20805369127517
2024-01-04T09:44:40.334Z,91.36912751677852
2024-01-04T09:48:00.297Z,125.59060402684564
2024-01-04T09:51:20.297Z,109.75167785234899
2024-01-04T10:01:32.976Z,509.12080536912754
2024-01-04T10:04:55.158Z,488.9865771812081
2024-01-04T10:08:16.278Z,263.6040268456376
2024-01-04T10:11:36.280Z,165.04697986577182
2024-01-04T10:17:50.807Z,107.45637583892618
2024-01-04T10:21:10.037Z,128.248322147651
2024-01-04T10:24:29.553Z,236.1476510067114
2024-01-04T10:27:49.645Z,168.66442953020135
2024-01-04T10:33:23.312Z,130.8724832214765
2024-01-04T10:36:44.173Z,234.18120805369128
2024-01-04T10:40:03.426Z,252.2281879194631
2024-01-04T10:43:22.827Z,170.6778523489933
2024-01-04T10:46:42.495Z,168.54362416107384
2024-01-04T10:50:02.032Z,192.7248322147651
2024-01-04T10:53:21.351Z,183.91946308724832
2024-01-04T10:57:21.461Z,166.84563758389262
2024-01-04T11:00:41.273Z,144.0738255033557
2024-01-04T11:04:00.889Z,176.14093959731542
2024-01-04T11:07:20.417Z,177.33557046979865
2024-01-04T11:10:40.307Z,316.255033557047
2024-01-04T11:13:59.484Z,421.8523489932886
2024-01-04T11:17:19.134Z,417.3758389261745
2024-01-04T11:20:39.392Z,378.7986577181208
2024-01-04T11:23:59.304Z,241.2751677852349
2024-01-04T11:27:19.184Z,254.63758389261744
2024-01-04T11:33:35.095Z,369.7046979865772
2024-01-04T11:36:55.100Z,309.6845637583893
2024-01-04T11:40:13.559Z,362.744966442953
2024-01-04T11:46:40.841Z,412.503355704698
2024-01-04T11:50:09.589Z,484.89261744966444
2024-01-04T11:53:51.526Z,405.86577181208054
2024-01-04T11:57:11.123Z,466.77852348993287
2024-01-04T12:00:31.355Z,393.5704697986577
2024-01-04T12:03:51.090Z,437.0402684563758
2024-01-04T12:07:09.933Z,380.4429530201342
2024-01-04T12:10:29.737Z,456.5302013422819
2024-01-04T12:13:49.702Z,539.7248322147651
2024-01-04T12:17:09.795Z,386.1677852348993
2024-01-04T12:20:29.382Z,399.3959731543624
2024-01-04T12:23:48.742Z,306.61744966442956
2024-01-04T12:27:08.759Z,360.5503355704698
2024-01-04T12:30:28.326Z,412.6845637583893
2024-01-04T12:34:36.703Z,314.89261744966444
2024-01-04T12:37:56.396Z,317.241610738255
2024-01-04T12:41:16.109Z,302.3557046979866
2024-01-04T12:45:24.543Z,281.5503355704698
2024-01-04T12:48:44.693Z,261.2013422818792
2024-01-04T12:52:04.473Z,307.59060402684565
2024-01-04T12:56:36.497Z,232.73154362416108
2024-01-04T13:01:52.470Z,252.21476510067114
2024-01-04T13:08:16.883Z,331.6308724832215
2024-01-04T13:11:36.462Z,323.6510067114094
2024-01-04T13:16:35.164Z,337.66442953020135
2024-01-04T13:19:55.078Z,533.6577181208054
2024-01-04T13:23:14.816Z,524.0671140939597
2024-01-04T13:26:34.561Z,306.1543624161074
2024-01-04T13:29:53.722Z,337.36241610738256
2024-01-04T13:33:12.463Z,299.03355704697987
2024-01-04T13:36:32.836Z,336.73825503355704
2024-01-04T13:39:52.598Z,367.30872483221475
2024-01-04T13:43:12.808Z,329.08053691275165
2024-01-04T13:46:32.664Z,347.0536912751678
2024-01-04T13:49:52.410Z,400.0402684563758
2024-01-04T13:53:12.115Z,333.71812080536915
2024-01-04T13:57:17.517Z,213.5234899328859
2024-01-04T14:00:37.857Z,210.39597315436242
2024-01-04T14:04:06.209Z,220.94630872483222
2024-01-04T14:07:25.532Z,254.83221476510067
2024-01-04T14:10:45.836Z,301.744966442953
2024-01-04T14:16:41.889Z,212.70469798657717
2024-01-04T14:20:01.294Z,217.88590604026845
2024-01-04T14:23:21.443Z,201.8523489932886
2024-01-04T14:26:40.504Z,175.95302013422818
2024-01-04T14:30:00.664Z,184.51677852348993
2024-01-04T14:33:25.212Z,178.6711409395973
2024-01-04T14:36:52.231Z,144.6711409395973
2024-01-04T14:41:20.757Z,169.78523489932886
2024-01-04T14:45:56.521Z,151.81879194630872
2024-01-04T14:49:16.261Z,159.21476510067114
2024-01-04T14:52:36.072Z,162.76510067114094
2024-01-04T14:55:55.433Z,157.751677852349
2024-01-04T14:59:14.812Z,168.63758389261744
2024-01-04T15:02:35.192Z,167.7248322147651
2024-01-04T15:05:55.520Z,220.86577181208054
2024-01-04T15:09:53.271Z,233.56375838926175
2024-01-04T15:13:14.143Z,179.04026845637583
2024-01-04T15:16:34.810Z,169.6979865771812
2024-01-04T15:19:54.357Z,181.19463087248323
2024-01-04T15:23:13.635Z,166.15436241610738
2024-01-04T15:26:34.276Z,162.46979865771812
2024-01-04T15:29:53.980Z,178.86577181208054
2024-01-04T15:33:14.259Z,189.5503355704698
2024-01-04T15:37:48.440Z,163.11409395973155
2024-01-04T15:41:07.806Z,184.4228187919463
2024-01-04T15:44:27.176Z,249.51677852348993
2024-01-04T15:47:47.395Z,263.5234899328859
2024-01-04T15:52:07.147Z,263.48993288590606
2024-01-04T15:55:26.623Z,226.60402684563758
2024-01-04T15:58:46.529Z,246.80536912751677
2024-01-04T16:02:05.951Z,232.11409395973155
2024-01-04T16:05:25.958Z,293.4563758389262
2024-01-04T16:10:03.373Z,307.51677852348996
2024-01-04T16:13:23.377Z,270.1543624161074
2024-01-04T16:16:43.879Z,284.4228187919463
2024-01-04T16:20:03.035Z,256.38255033557044
2024-01-04T16:23:22.799Z,306.2684563758389
2024-01-04T16:28:07.266Z,320.96644295302013
2024-01-04T16:32:11.303Z,307.3959731543624
2024-01-04T16:35:31.427Z,306.87919463087246
2024-01-04T16:38:51.295Z,299.503355704698
2024-01-04T16:42:11.178Z,299.5704697986577
2024-01-04T16:50:31.166Z,293.3154362416107
2024-01-04T16:53:51.011Z,262.1140939597315
2024-01-04T16:57:11.194Z,287.81208053691273
2024-01-04T17:00:30.659Z,264.2751677852349
2024-01-04T17:03:50.833Z,302.46308724832215
2024-01-04T17:08:12.753Z,238.7986577181208
2024-01-04T17:13:49.632Z,237.16778523489933
2024-01-04T17:17:09.611Z,278.26174496644296
2024-01-04T17:20:29.521Z,290.38255033557044
2024-01-04T17:23:50.177Z,315.28187919463085
2024-01-04T17:27:10.313Z,362.06711409395973
2024-01-04T17:30:29.896Z,400.97986577181206
2024-01-04T17:33:50.736Z,366.3422818791946
2024-01-04T17:38:16.625Z,392.1006711409396
2024-01-04T17:41:37.510Z,388.36241610738256
2024-01-04T17:44:57.228Z,370.51006711409394
2024-01-04T17:48:17.008Z,395.28187919463085
2024-01-04T17:51:43.017Z,441.18791946308727
2024-01-04T17:55:02.739Z,402.1677852348993
2024-01-04T17:58:23.500Z,407.6845637583893
2024-01-04T18:01:44.516Z,351.3422818791946
2024-01-04T18:05:04.557Z,354.241610738255
2024-01-04T18:08:24.587Z,359.22147651006713
2024-01-04T18:11:45.721Z,369.6979865771812
2024-01-04T18:19:26.177Z,399.67785234899327
2024-01-04T18:22:47.297Z,386.79194630872485
2024-01-04T18:26:07.345Z,393.2147651006711
2024-01-04T18:29:27.296Z,374.3288590604027
2024-01-04T18:35:53.266Z,333.77852348993287
2024-01-04T18:39:12.606Z,314.06711409395973
2024-01-04T18:42:32.922Z,307.59060402684565
2024-01-04T18:45:52.990Z,272.90604026845637
2024-01-04T18:49:12.870Z,276.97986577181206
2024-01-04T18:52:32.747Z,315.8993288590604
2024-01-04T18:55:52.426Z,400.1409395973154
2024-01-04T18:59:12.873Z,376.48322147651004
2024-01-04T19:02:33.095Z,374.7248322147651
2024-01-04T19:05:53.533Z,373.5771812080537
2024-01-04T19:09:14.064Z,415.5302013422819
2024-01-04T19:12:34.510Z,315.751677852349
2024-01-04T19:20:29.803Z,511.13422818791946
2024-01-04T19:30:13.991Z,525.7114093959732
2024-01-04T19:33:50.187Z,434.7315436241611
2024-01-04T19:37:16.756Z,418.19463087248323
2024-01-04T19:40:42.490Z,396.53691275167785
2024-01-04T19:44:05.528Z,425.751677852349
2024-01-04T19:49:58.819Z,423.4161073825503
2024-01-04T19:56:38.262Z,491.4697986577181
2024-01-04T19:59:58.105Z,484.5570469798658
2024-01-04T20:06:35.633Z,444.12080536912754
2024-01-04T20:09:55.163Z,501.9127516778523
2024-01-04T20:13:14.316Z,469.2953020134228
2024-01-04T20:16:36.307Z,498.2953020134228
2024-01-04T20:19:56.722Z,410.7315436241611
2024-01-04T20:23:15.491Z,419.43624161073825
2024-01-04T20:26:35.588Z,392.80536912751677
2024-01-04T20:29:54.494Z,399.63758389261744
2024-01-04T20:33:14.928Z,393.4563758389262
2024-01-04T20:36:34.614Z,386.3489932885906
2024-01-04T20:39:53.989Z,399.86577181208054
2024-01-04T20:43:12.960Z,421.97986577181206
2024-01-04T20:46:32.862Z,407.18791946308727
2024-01-04T20:49:53.119Z,386.2751677852349
2024-01-04T20:55:56.973Z,396.4563758389262
2024-01-04T20:59:16.974Z,417.6510067114094
2024-01-04T21:02:48.454Z,404.5234899328859
2024-01-04T21:06:11.830Z,371.3691275167785
2024-01-04T21:09:33.911Z,354.89261744966444
2024-01-04T21:12:54.306Z,414.96644295302013
2024-01-04T21:16:16.952Z,392.6845637583893
2024-01-04T21:19:37.173Z,398.71812080536915
2024-01-04T21:22:57.561Z,390.3758389261745
2024-01-04T21:26:17.115Z,368.5503355704698
2024-01-04T21:29:37.222Z,354.76510067114094
2024-01-04T21:32:57.454Z,342.12080536912754
2024-01-04T21:39:14.143Z,347.4563758389262
2024-01-04T21:44:07.926Z,365.71812080536915
2024-01-04T21:47:28.345Z,338.93959731543623
2024-01-04T21:50:48.490Z,386.0738255033557
2024-01-04T21:54:07.574Z,381.7986577181208
2024-01-04T21:57:39.750Z,364.93288590604027
2024-01-04T22:03:52.970Z,376.5302013422819
2024-01-04T22:09:24.602Z,377.83892617449663
2024-01-04T22:12:43.761Z,390.3691275167785
2024-01-04T22:16:03.944Z,333.99328859060404
2024-01-04T22:19:23.259Z,350.7986577181208
2024-01-04T22:22:42.457Z,338.7248322147651
2024-01-04T22:29:02.462Z,333.6241610738255
2024-01-04T22:32:22.154Z,337.7046979865772
2024-01-04T22:35:42.467Z,330.28187919463085
2024-01-04T22:39:02.140Z,321.69127516778525
2024-01-04T22:45:24.849Z,343.91946308724835
2024-01-04T22:48:45.086Z,347.06711409395973
2024-01-04T22:52:04.869Z,326.80536912751677
2024-01-04T22:55:24.992Z,315.36241610738256
2024-01-04T23:00:07.560Z,329.5436241610738
2024-01-04T23:03:27.446Z,323.2281879194631
2024-01-04T23:06:47.908Z,303.61073825503354
2024-01-04T23:10:07.429Z,320.76510067114094
2024-01-04T23:13:26.710Z,341.7718120805369
2024-01-04T23:16:47.026Z,357.81879194630875
2024-01-04T23:20:06.223Z,344.0402684563758
2024-01-04T23:23:26.566Z,346.93288590604027
2024-01-04T23:28:22.090Z,357.8322147651007
2024-01-04T23:31:41.552Z,413.59060402684565
2024-01-04T23:35:01.621Z,468.48993288590606
2024-01-04T23:38:21.139Z,358.6510067114094
2024-01-04T23:41:41.726Z,343.9731543624161
2024-01-04T23:45:01.449Z,338.7986577181208
2024-01-04T23:52:10.466Z,339.40939597315435
2024-01-04T23:55:30.035Z,340.4697986577181
